sensor_id;sensor_type;location;lat;lon;timestamp;pressure;altitude;pressure_sealevel;temperature;humidity
22283;BME280;11310;51.528;21.204;2023-05-22T00:01:33;100409.81;;;13.25;90.09
22283;BME280;11310;51.528;21.204;2023-05-22T00:04:03;100416.09;;;13.23;90.25
22283;BME280;11310;51.528;21.204;2023-05-22T00:06:33;100415.38;;;13.19;90.40
22283;BME280;11310;51.528;21.204;2023-05-22T00:09:02;100417.38;;;13.14;90.86
22283;BME280;11310;51.528;21.204;2023-05-22T00:11:31;100410.72;;;13.07;91.21
22283;BME280;11310;51.528;21.204;2023-05-22T00:14:00;100410.88;;;13.04;91.42
22283;BME280;11310;51.528;21.204;2023-05-22T00:16:31;100411.28;;;12.95;92.41
22283;BME280;11310;51.528;21.204;2023-05-22T00:18:59;100408.97;;;12.89;92.02
22283;BME280;11310;51.528;21.204;2023-05-22T00:21:29;100407.41;;;12.85;92.43
22283;BME280;11310;51.528;21.204;2023-05-22T00:24:01;100413.28;;;12.73;92.78
22283;BME280;11310;51.528;21.204;2023-05-22T00:26:30;100416.66;;;12.58;93.65
22283;BME280;11310;51.528;21.204;2023-05-22T00:29:02;100408.84;;;12.38;94.63
22283;BME280;11310;51.528;21.204;2023-05-22T00:31:34;100414.69;;;12.26;95.46
22283;BME280;11310;51.528;21.204;2023-05-22T00:34:03;100415.75;;;12.22;95.43
22283;BME280;11310;51.528;21.204;2023-05-22T00:36:32;100406.72;;;12.09;96.04
22283;BME280;11310;51.528;21.204;2023-05-22T00:39:01;100412.25;;;12.03;97.07
22283;BME280;11310;51.528;21.204;2023-05-22T00:41:32;100413.69;;;12.10;95.71
22283;BME280;11310;51.528;21.204;2023-05-22T00:44:02;100416.22;;;11.93;96.63
22283;BME280;11310;51.528;21.204;2023-05-22T00:46:35;100406.13;;;11.84;97.42
22283;BME280;11310;51.528;21.204;2023-05-22T00:49:04;100405.63;;;11.76;98.43
22283;BME280;11310;51.528;21.204;2023-05-22T00:51:38;100410.69;;;11.81;97.57
22283;BME280;11310;51.528;21.204;2023-05-22T00:54:07;100412.56;;;11.77;97.59
22283;BME280;11310;51.528;21.204;2023-05-22T00:56:39;100408.94;;;11.79;97.33
22283;BME280;11310;51.528;21.204;2023-05-22T00:59:08;100409.13;;;11.77;97.19
22283;BME280;11310;51.528;21.204;2023-05-22T01:01:39;100407.47;;;11.74;96.90
22283;BME280;11310;51.528;21.204;2023-05-22T01:04:10;100406.97;;;11.66;97.52
22283;BME280;11310;51.528;21.204;2023-05-22T01:06:39;100401.19;;;11.56;97.43
22283;BME280;11310;51.528;21.204;2023-05-22T01:09:11;100410.16;;;11.52;98.49
22283;BME280;11310;51.528;21.204;2023-05-22T01:11:46;100407.19;;;11.40;98.40
22283;BME280;11310;51.528;21.204;2023-05-22T01:14:22;100410.38;;;11.28;99.11
22283;BME280;11310;51.528;21.204;2023-05-22T01:17:00;100410.09;;;11.14;100.00
22283;BME280;11310;51.528;21.204;2023-05-22T01:19:53;100404.56;;;11.00;100.00
22283;BME280;11310;51.528;21.204;2023-05-22T01:25:39;100406.09;;;10.84;100.00
22283;BME280;11310;51.528;21.204;2023-05-22T01:28:30;100415.13;;;10.77;100.00
22283;BME280;11310;51.528;21.204;2023-05-22T01:31:07;100415.53;;;10.68;100.00
22283;BME280;11310;51.528;21.204;2023-05-22T01:33:41;100418.16;;;10.68;100.00
22283;BME280;11310;51.528;21.204;2023-05-22T01:36:13;100415.66;;;10.65;100.00
22283;BME280;11310;51.528;21.204;2023-05-22T01:38:45;100411.44;;;10.61;100.00
22283;BME280;11310;51.528;21.204;2023-05-22T01:41:15;100410.34;;;10.66;100.00
22283;BME280;11310;51.528;21.204;2023-05-22T01:43:44;100411.06;;;10.70;100.00
22283;BME280;11310;51.528;21.204;2023-05-22T01:46:14;100411.31;;;10.85;100.00
22283;BME280;11310;51.528;21.204;2023-05-22T01:48:43;100415.75;;;10.83;100.00
22283;BME280;11310;51.528;21.204;2023-05-22T01:51:18;100419.50;;;10.78;100.00
22283;BME280;11310;51.528;21.204;2023-05-22T01:53:53;100413.38;;;10.77;100.00
22283;BME280;11310;51.528;21.204;2023-05-22T01:56:28;100413.94;;;10.64;100.00
22283;BME280;11310;51.528;21.204;2023-05-22T01:59:08;100413.69;;;10.48;100.00
22283;BME280;11310;51.528;21.204;2023-05-22T02:01:40;100407.94;;;10.39;100.00
22283;BME280;11310;51.528;21.204;2023-05-22T02:04:12;100410.09;;;10.29;100.00
22283;BME280;11310;51.528;21.204;2023-05-22T02:06:43;100421.56;;;10.27;100.00
22283;BME280;11310;51.528;21.204;2023-05-22T02:09:14;100423.66;;;10.17;100.00
22283;BME280;11310;51.528;21.204;2023-05-22T02:11:46;100413.56;;;10.07;100.00
22283;BME280;11310;51.528;21.204;2023-05-22T02:14:15;100414.03;;;9.95;100.00
22283;BME280;11310;51.528;21.204;2023-05-22T02:16:47;100411.59;;;9.89;100.00
22283;BME280;11310;51.528;21.204;2023-05-22T02:19:19;100413.38;;;9.88;100.00
22283;BME280;11310;51.528;21.204;2023-05-22T02:21:48;100408.41;;;9.81;100.00
22283;BME280;11310;51.528;21.204;2023-05-22T02:24:17;100410.91;;;9.84;100.00
22283;BME280;11310;51.528;21.204;2023-05-22T02:26:47;100407.94;;;9.70;100.00
22283;BME280;11310;51.528;21.204;2023-05-22T02:29:16;100408.16;;;9.88;100.00
22283;BME280;11310;51.528;21.204;2023-05-22T02:31:47;100408.63;;;9.98;100.00
22283;BME280;11310;51.528;21.204;2023-05-22T02:34:16;100417.41;;;9.97;100.00
22283;BME280;11310;51.528;21.204;2023-05-22T02:36:44;100412.06;;;10.00;100.00
22283;BME280;11310;51.528;21.204;2023-05-22T02:39:15;100404.59;;;9.89;100.00
22283;BME280;11310;51.528;21.204;2023-05-22T02:41:44;100405.69;;;9.84;100.00
22283;BME280;11310;51.528;21.204;2023-05-22T02:44:13;100409.13;;;9.86;100.00
22283;BME280;11310;51.528;21.204;2023-05-22T02:46:44;100406.25;;;9.92;100.00
22283;BME280;11310;51.528;21.204;2023-05-22T02:49:15;100404.59;;;9.89;100.00
22283;BME280;11310;51.528;21.204;2023-05-22T02:51:43;100402.31;;;9.80;100.00
22283;BME280;11310;51.528;21.204;2023-05-22T02:54:14;100395.88;;;9.66;100.00
22283;BME280;11310;51.528;21.204;2023-05-22T02:56:43;100399.41;;;9.65;100.00
22283;BME280;11310;51.528;21.204;2023-05-22T02:59:11;100394.16;;;9.65;100.00
22283;BME280;11310;51.528;21.204;2023-05-22T03:01:41;100388.84;;;9.68;100.00
22283;BME280;11310;51.528;21.204;2023-05-22T03:04:11;100398.72;;;9.60;100.00
22283;BME280;11310;51.528;21.204;2023-05-22T03:06:42;100389.16;;;9.59;100.00
22283;BME280;11310;51.528;21.204;2023-05-22T03:09:12;100398.81;;;9.57;100.00
22283;BME280;11310;51.528;21.204;2023-05-22T03:11:42;100392.91;;;9.52;100.00
22283;BME280;11310;51.528;21.204;2023-05-22T03:14:11;100390.59;;;9.43;100.00
22283;BME280;11310;51.528;21.204;2023-05-22T03:16:40;100392.31;;;9.44;100.00
22283;BME280;11310;51.528;21.204;2023-05-22T03:19:10;100391.28;;;9.48;100.00
22283;BME280;11310;51.528;21.204;2023-05-22T03:21:41;100388.53;;;9.52;100.00
22283;BME280;11310;51.528;21.204;2023-05-22T03:24:11;100383.34;;;9.51;100.00
22283;BME280;11310;51.528;21.204;2023-05-22T03:26:40;100391.09;;;9.54;100.00
22283;BME280;11310;51.528;21.204;2023-05-22T03:29:16;100392.22;;;9.47;100.00
22283;BME280;11310;51.528;21.204;2023-05-22T03:31:45;100389.53;;;9.48;100.00
22283;BME280;11310;51.528;21.204;2023-05-22T03:34:14;100384.25;;;9.50;100.00
22283;BME280;11310;51.528;21.204;2023-05-22T03:36:47;100375.94;;;9.62;100.00
22283;BME280;11310;51.528;21.204;2023-05-22T03:39:16;100382.78;;;9.66;100.00
22283;BME280;11310;51.528;21.204;2023-05-22T03:41:54;100383.94;;;9.82;100.00
22283;BME280;11310;51.528;21.204;2023-05-22T03:44:25;100385.25;;;9.93;100.00
22283;BME280;11310;51.528;21.204;2023-05-22T03:46:54;100394.44;;;10.05;100.00
22283;BME280;11310;51.528;21.204;2023-05-22T03:49:22;100374.94;;;10.12;100.00
22283;BME280;11310;51.528;21.204;2023-05-22T03:51:52;100388.72;;;10.17;100.00
22283;BME280;11310;51.528;21.204;2023-05-22T03:54:21;100388.50;;;10.23;100.00
22283;BME280;11310;51.528;21.204;2023-05-22T03:56:50;100382.81;;;10.33;100.00
22283;BME280;11310;51.528;21.204;2023-05-22T03:59:19;100390.50;;;10.38;100.00
22283;BME280;11310;51.528;21.204;2023-05-22T04:01:47;100392.88;;;10.44;100.00
22283;BME280;11310;51.528;21.204;2023-05-22T04:04:17;100386.59;;;10.48;100.00
22283;BME280;11310;51.528;21.204;2023-05-22T04:06:46;100378.06;;;10.43;100.00
22283;BME280;11310;51.528;21.204;2023-05-22T04:09:17;100385.22;;;10.39;100.00
22283;BME280;11310;51.528;21.204;2023-05-22T04:11:46;100378.97;;;10.42;100.00
22283;BME280;11310;51.528;21.204;2023-05-22T04:14:16;100386.50;;;10.51;100.00
22283;BME280;11310;51.528;21.204;2023-05-22T04:16:45;100381.00;;;10.57;100.00
22283;BME280;11310;51.528;21.204;2023-05-22T04:19:16;100380.50;;;10.69;100.00
22283;BME280;11310;51.528;21.204;2023-05-22T04:21:45;100377.63;;;10.75;100.00
22283;BME280;11310;51.528;21.204;2023-05-22T04:24:17;100373.47;;;10.91;100.00
22283;BME280;11310;51.528;21.204;2023-05-22T04:26:47;100368.47;;;11.05;100.00
22283;BME280;11310;51.528;21.204;2023-05-22T04:29:16;100375.81;;;11.17;100.00
22283;BME280;11310;51.528;21.204;2023-05-22T04:31:48;100374.38;;;11.30;100.00
22283;BME280;11310;51.528;21.204;2023-05-22T04:34:20;100378.19;;;11.43;100.00
22283;BME280;11310;51.528;21.204;2023-05-22T04:36:50;100374.16;;;11.54;100.00
22283;BME280;11310;51.528;21.204;2023-05-22T04:39:22;100366.47;;;11.70;100.00
22283;BME280;11310;51.528;21.204;2023-05-22T04:41:52;100370.84;;;11.90;99.91
22283;BME280;11310;51.528;21.204;2023-05-22T04:44:21;100367.56;;;12.03;99.57
22283;BME280;11310;51.528;21.204;2023-05-22T04:46:50;100368.06;;;12.11;99.48
22283;BME280;11310;51.528;21.204;2023-05-22T04:49:19;100363.00;;;12.25;99.30
22283;BME280;11310;51.528;21.204;2023-05-22T04:51:48;100365.19;;;12.34;98.67
22283;BME280;11310;51.528;21.204;2023-05-22T04:54:17;100371.66;;;12.46;98.76
22283;BME280;11310;51.528;21.204;2023-05-22T04:56:47;100364.31;;;12.52;98.38
22283;BME280;11310;51.528;21.204;2023-05-22T04:59:16;100369.06;;;12.63;98.58
22283;BME280;11310;51.528;21.204;2023-05-22T05:01:45;100372.88;;;12.74;98.32
22283;BME280;11310;51.528;21.204;2023-05-22T05:04:14;100374.13;;;12.84;98.36
22283;BME280;11310;51.528;21.204;2023-05-22T05:06:43;100371.75;;;12.97;98.75
22283;BME280;11310;51.528;21.204;2023-05-22T05:09:13;100372.78;;;13.11;98.05
22283;BME280;11310;51.528;21.204;2023-05-22T05:11:43;100372.75;;;13.28;97.42
22283;BME280;11310;51.528;21.204;2023-05-22T05:14:13;100378.16;;;13.42;97.07
22283;BME280;11310;51.528;21.204;2023-05-22T05:16:43;100380.00;;;13.57;96.47
22283;BME280;11310;51.528;21.204;2023-05-22T05:19:13;100380.88;;;13.73;95.18
22283;BME280;11310;51.528;21.204;2023-05-22T05:21:43;100387.72;;;13.77;95.04
22283;BME280;11310;51.528;21.204;2023-05-22T05:24:12;100388.09;;;13.87;94.82
22283;BME280;11310;51.528;21.204;2023-05-22T05:26:42;100392.44;;;14.03;94.29
22283;BME280;11310;51.528;21.204;2023-05-22T05:29:13;100395.09;;;14.19;94.00
22283;BME280;11310;51.528;21.204;2023-05-22T05:31:50;100397.78;;;14.34;93.96
22283;BME280;11310;51.528;21.204;2023-05-22T05:34:45;100397.59;;;14.53;93.19
22283;BME280;11310;51.528;21.204;2023-05-22T05:37:33;100390.25;;;14.73;92.17
22283;BME280;11310;51.528;21.204;2023-05-22T05:40:05;100383.34;;;14.86;91.75
22283;BME280;11310;51.528;21.204;2023-05-22T05:42:37;100385.66;;;15.06;91.13
22283;BME280;11310;51.528;21.204;2023-05-22T05:45:11;100389.78;;;15.26;90.47
22283;BME280;11310;51.528;21.204;2023-05-22T05:47:42;100379.34;;;15.38;89.67
22283;BME280;11310;51.528;21.204;2023-05-22T05:50:12;100384.31;;;15.58;89.75
22283;BME280;11310;51.528;21.204;2023-05-22T05:52:43;100391.88;;;15.78;88.96
22283;BME280;11310;51.528;21.204;2023-05-22T05:55:16;100388.47;;;15.90;88.93
22283;BME280;11310;51.528;21.204;2023-05-22T05:57:49;100386.84;;;16.16;87.97
22283;BME280;11310;51.528;21.204;2023-05-22T06:00:30;100389.72;;;16.39;88.26
22283;BME280;11310;51.528;21.204;2023-05-22T06:03:01;100394.72;;;16.58;87.81
22283;BME280;11310;51.528;21.204;2023-05-22T06:05:56;100393.34;;;16.79;87.52
22283;BME280;11310;51.528;21.204;2023-05-22T06:08:46;100390.03;;;17.02;86.67
22283;BME280;11310;51.528;21.204;2023-05-22T06:11:15;100389.63;;;17.20;86.80
22283;BME280;11310;51.528;21.204;2023-05-22T06:13:53;100393.53;;;17.41;85.82
22283;BME280;11310;51.528;21.204;2023-05-22T06:16:24;100382.38;;;17.61;85.44
22283;BME280;11310;51.528;21.204;2023-05-22T06:18:56;100390.16;;;17.64;84.71
22283;BME280;11310;51.528;21.204;2023-05-22T06:21:26;100386.31;;;17.81;83.85
22283;BME280;11310;51.528;21.204;2023-05-22T06:23:55;100389.28;;;18.01;84.32
22283;BME280;11310;51.528;21.204;2023-05-22T06:26:27;100393.91;;;18.23;84.78
22283;BME280;11310;51.528;21.204;2023-05-22T06:28:56;100392.28;;;18.45;81.87
22283;BME280;11310;51.528;21.204;2023-05-22T06:31:26;100395.34;;;18.52;80.31
22283;BME280;11310;51.528;21.204;2023-05-22T06:33:57;100384.91;;;18.61;81.12
22283;BME280;11310;51.528;21.204;2023-05-22T06:36:27;100387.19;;;18.78;81.22
22283;BME280;11310;51.528;21.204;2023-05-22T06:38:57;100395.25;;;19.00;80.26
22283;BME280;11310;51.528;21.204;2023-05-22T06:41:52;100387.75;;;19.29;79.60
22283;BME280;11310;51.528;21.204;2023-05-22T06:44:22;100384.28;;;19.39;78.56
22283;BME280;11310;51.528;21.204;2023-05-22T06:46:57;100381.41;;;19.53;77.68
22283;BME280;11310;51.528;21.204;2023-05-22T06:49:26;100382.75;;;19.70;76.60
22283;BME280;11310;51.528;21.204;2023-05-22T06:51:55;100393.31;;;19.82;76.77
22283;BME280;11310;51.528;21.204;2023-05-22T06:54:25;100386.53;;;19.89;75.62
22283;BME280;11310;51.528;21.204;2023-05-22T06:56:57;100379.53;;;19.99;74.26
22283;BME280;11310;51.528;21.204;2023-05-22T06:59:27;100383.66;;;20.14;73.65
22283;BME280;11310;51.528;21.204;2023-05-22T07:02:07;100379.69;;;20.31;74.14
22283;BME280;11310;51.528;21.204;2023-05-22T07:04:56;100380.50;;;20.42;72.77
22283;BME280;11310;51.528;21.204;2023-05-22T07:07:48;100373.19;;;20.55;73.28
22283;BME280;11310;51.528;21.204;2023-05-22T07:10:17;100375.66;;;20.79;72.01
22283;BME280;11310;51.528;21.204;2023-05-22T07:12:47;100370.78;;;20.84;71.48
22283;BME280;11310;51.528;21.204;2023-05-22T07:15:16;100378.22;;;20.80;71.49
22283;BME280;11310;51.528;21.204;2023-05-22T07:17:52;100371.94;;;20.70;70.38
22283;BME280;11310;51.528;21.204;2023-05-22T07:20:22;100370.03;;;20.50;71.89
22283;BME280;11310;51.528;21.204;2023-05-22T07:23:01;100368.75;;;20.34;73.20
22283;BME280;11310;51.528;21.204;2023-05-22T07:25:30;100368.03;;;20.21;73.85
22283;BME280;11310;51.528;21.204;2023-05-22T07:27:59;100375.75;;;20.35;74.10
22283;BME280;11310;51.528;21.204;2023-05-22T07:30:44;100363.19;;;20.79;72.48
22283;BME280;11310;51.528;21.204;2023-05-22T07:33:16;100365.63;;;21.14;70.33
22283;BME280;11310;51.528;21.204;2023-05-22T07:35:45;100365.03;;;21.52;67.76
22283;BME280;11310;51.528;21.204;2023-05-22T07:38:15;100375.69;;;21.93;67.50
22283;BME280;11310;51.528;21.204;2023-05-22T07:40:54;100364.13;;;22.22;64.13
22283;BME280;11310;51.528;21.204;2023-05-22T07:43:24;100374.31;;;22.38;63.25
22283;BME280;11310;51.528;21.204;2023-05-22T07:45:55;100376.72;;;22.41;61.89
22283;BME280;11310;51.528;21.204;2023-05-22T07:48:30;100369.88;;;22.48;62.21
22283;BME280;11310;51.528;21.204;2023-05-22T07:50:59;100368.38;;;22.74;61.95
22283;BME280;11310;51.528;21.204;2023-05-22T07:53:30;100362.19;;;23.02;60.36
22283;BME280;11310;51.528;21.204;2023-05-22T07:56:02;100361.47;;;23.09;51.10
22283;BME280;11310;51.528;21.204;2023-05-22T07:58:32;100361.94;;;23.24;58.41
22283;BME280;11310;51.528;21.204;2023-05-22T08:01:01;100362.31;;;23.48;57.18
22283;BME280;11310;51.528;21.204;2023-05-22T08:03:35;100352.41;;;23.67;55.89
22283;BME280;11310;51.528;21.204;2023-05-22T08:06:05;100354.88;;;23.88;54.68
22283;BME280;11310;51.528;21.204;2023-05-22T08:08:34;100358.06;;;24.10;54.60
22283;BME280;11310;51.528;21.204;2023-05-22T08:11:04;100366.31;;;24.26;52.81
22283;BME280;11310;51.528;21.204;2023-05-22T08:13:33;100354.59;;;24.27;52.55
22283;BME280;11310;51.528;21.204;2023-05-22T08:16:04;100359.06;;;24.36;52.11
22283;BME280;11310;51.528;21.204;2023-05-22T08:18:35;100350.81;;;24.47;50.83
22283;BME280;11310;51.528;21.204;2023-05-22T08:21:04;100346.81;;;24.51;50.78
22283;BME280;11310;51.528;21.204;2023-05-22T08:23:34;100344.34;;;24.40;50.00
22283;BME280;11310;51.528;21.204;2023-05-22T08:26:05;100338.44;;;24.37;51.15
22283;BME280;11310;51.528;21.204;2023-05-22T08:28:38;100342.31;;;24.52;50.05
22283;BME280;11310;51.528;21.204;2023-05-22T08:31:10;100344.78;;;24.63;49.75
22283;BME280;11310;51.528;21.204;2023-05-22T08:33:42;100333.09;;;24.64;50.03
22283;BME280;11310;51.528;21.204;2023-05-22T08:36:10;100332.66;;;24.59;49.19
22283;BME280;11310;51.528;21.204;2023-05-22T08:38:40;100334.78;;;24.55;48.87
22283;BME280;11310;51.528;21.204;2023-05-22T08:41:10;100332.75;;;24.67;49.02
22283;BME280;11310;51.528;21.204;2023-05-22T08:43:41;100342.59;;;24.93;49.71
22283;BME280;11310;51.528;21.204;2023-05-22T08:46:10;100336.72;;;25.15;48.33
22283;BME280;11310;51.528;21.204;2023-05-22T08:48:44;100327.31;;;25.29;45.81
22283;BME280;11310;51.528;21.204;2023-05-22T08:51:18;100339.66;;;25.39;46.70
22283;BME280;11310;51.528;21.204;2023-05-22T08:53:50;100330.75;;;25.64;46.00
22283;BME280;11310;51.528;21.204;2023-05-22T08:56:20;100327.84;;;25.83;45.99
22283;BME280;11310;51.528;21.204;2023-05-22T08:58:49;100324.09;;;26.02;46.48
22283;BME280;11310;51.528;21.204;2023-05-22T09:01:18;100324.78;;;26.04;45.61
22283;BME280;11310;51.528;21.204;2023-05-22T09:03:50;100325.19;;;26.17;44.85
22283;BME280;11310;51.528;21.204;2023-05-22T09:06:19;100327.25;;;26.31;45.25
22283;BME280;11310;51.528;21.204;2023-05-22T09:08:50;100322.22;;;26.28;44.29
22283;BME280;11310;51.528;21.204;2023-05-22T09:11:20;100322.00;;;26.21;43.51
22283;BME280;11310;51.528;21.204;2023-05-22T09:13:50;100318.13;;;26.16;44.19
22283;BME280;11310;51.528;21.204;2023-05-22T09:16:19;100317.44;;;26.22;43.75
22283;BME280;11310;51.528;21.204;2023-05-22T09:18:50;100325.06;;;26.26;44.88
22283;BME280;11310;51.528;21.204;2023-05-22T09:21:18;100312.97;;;26.38;45.03
22283;BME280;11310;51.528;21.204;2023-05-22T09:23:58;100313.31;;;26.35;44.08
22283;BME280;11310;51.528;21.204;2023-05-22T09:26:28;100311.47;;;26.44;44.83
22283;BME280;11310;51.528;21.204;2023-05-22T09:28:58;100300.38;;;26.55;44.28
22283;BME280;11310;51.528;21.204;2023-05-22T09:31:28;100305.78;;;26.47;43.63
22283;BME280;11310;51.528;21.204;2023-05-22T09:34:00;100309.97;;;26.41;42.92
22283;BME280;11310;51.528;21.204;2023-05-22T09:36:29;100305.78;;;26.47;42.83
22283;BME280;11310;51.528;21.204;2023-05-22T09:39:01;100302.09;;;26.56;42.62
22283;BME280;11310;51.528;21.204;2023-05-22T09:41:34;100303.16;;;26.79;43.11
22283;BME280;11310;51.528;21.204;2023-05-22T09:44:13;100308.22;;;26.74;42.53
22283;BME280;11310;51.528;21.204;2023-05-22T09:46:45;100304.69;;;26.81;43.19
22283;BME280;11310;51.528;21.204;2023-05-22T09:49:15;100303.34;;;26.77;39.80
22283;BME280;11310;51.528;21.204;2023-05-22T09:51:45;100293.22;;;26.63;42.46
22283;BME280;11310;51.528;21.204;2023-05-22T09:54:16;100290.47;;;26.55;43.38
22283;BME280;11310;51.528;21.204;2023-05-22T09:56:47;100300.53;;;26.37;43.10
22283;BME280;11310;51.528;21.204;2023-05-22T09:59:20;100290.22;;;26.25;43.53
22283;BME280;11310;51.528;21.204;2023-05-22T10:01:53;100297.59;;;26.23;43.83
22283;BME280;11310;51.528;21.204;2023-05-22T10:04:24;100294.28;;;26.29;43.30
22283;BME280;11310;51.528;21.204;2023-05-22T10:06:56;100289.44;;;26.40;43.35
22283;BME280;11310;51.528;21.204;2023-05-22T10:09:30;100287.25;;;26.44;43.45
22283;BME280;11310;51.528;21.204;2023-05-22T10:12:04;100284.97;;;26.65;42.47
22283;BME280;11310;51.528;21.204;2023-05-22T10:14:33;100289.53;;;26.88;42.74
22283;BME280;11310;51.528;21.204;2023-05-22T10:17:03;100290.06;;;27.24;42.03
22283;BME280;11310;51.528;21.204;2023-05-22T10:19:34;100282.47;;;27.35;40.55
22283;BME280;11310;51.528;21.204;2023-05-22T10:22:10;100281.94;;;27.32;40.63
22283;BME280;11310;51.528;21.204;2023-05-22T10:24:47;100283.31;;;27.36;40.42
22283;BME280;11310;51.528;21.204;2023-05-22T10:27:16;100282.59;;;27.42;41.10
22283;BME280;11310;51.528;21.204;2023-05-22T10:29:49;100274.88;;;27.31;40.26
22283;BME280;11310;51.528;21.204;2023-05-22T10:32:26;100274.19;;;27.53;41.12
22283;BME280;11310;51.528;21.204;2023-05-22T10:35:14;100269.03;;;27.90;38.77
22283;BME280;11310;51.528;21.204;2023-05-22T10:37:48;100267.25;;;28.05;39.42
22283;BME280;11310;51.528;21.204;2023-05-22T10:40:22;100265.31;;;28.21;38.78
22283;BME280;11310;51.528;21.204;2023-05-22T10:42:57;100261.97;;;28.19;39.18
22283;BME280;11310;51.528;21.204;2023-05-22T10:45:27;100268.31;;;28.26;39.46
22283;BME280;11310;51.528;21.204;2023-05-22T10:48:09;100269.59;;;28.16;38.16
22283;BME280;11310;51.528;21.204;2023-05-22T10:50:49;100271.28;;;28.09;37.52
22283;BME280;11310;51.528;21.204;2023-05-22T10:53:22;100272.06;;;27.87;40.20
22283;BME280;11310;51.528;21.204;2023-05-22T10:55:51;100268.22;;;27.81;34.86
22283;BME280;11310;51.528;21.204;2023-05-22T10:58:25;100268.03;;;27.75;40.55
22283;BME280;11310;51.528;21.204;2023-05-22T11:01:09;100269.47;;;27.47;38.34
22283;BME280;11310;51.528;21.204;2023-05-22T11:03:50;100275.56;;;27.01;40.12
22283;BME280;11310;51.528;21.204;2023-05-22T11:06:35;100260.91;;;26.87;40.81
22283;BME280;11310;51.528;21.204;2023-05-22T11:09:25;100247.28;;;27.21;40.46
22283;BME280;11310;51.528;21.204;2023-05-22T11:12:16;100256.59;;;27.81;38.63
22283;BME280;11310;51.528;21.204;2023-05-22T11:14:50;100256.09;;;28.16;38.14
22283;BME280;11310;51.528;21.204;2023-05-22T11:17:21;100255.81;;;28.33;38.89
22283;BME280;11310;51.528;21.204;2023-05-22T11:20:00;100248.34;;;28.43;37.97
22283;BME280;11310;51.528;21.204;2023-05-22T11:22:35;100250.84;;;28.53;37.80
22283;BME280;11310;51.528;21.204;2023-05-22T11:25:07;100250.41;;;28.64;39.17
22283;BME280;11310;51.528;21.204;2023-05-22T11:27:47;100255.56;;;28.74;37.97
22283;BME280;11310;51.528;21.204;2023-05-22T11:30:16;100238.66;;;28.57;39.87
22283;BME280;11310;51.528;21.204;2023-05-22T11:32:45;100238.41;;;28.44;39.28
22283;BME280;11310;51.528;21.204;2023-05-22T11:35:17;100236.44;;;28.30;39.81
22283;BME280;11310;51.528;21.204;2023-05-22T11:37:49;100231.63;;;28.48;38.75
22283;BME280;11310;51.528;21.204;2023-05-22T11:40:21;100233.69;;;28.83;39.74
22283;BME280;11310;51.528;21.204;2023-05-22T11:42:54;100227.50;;;28.97;38.54
22283;BME280;11310;51.528;21.204;2023-05-22T11:45:24;100223.38;;;28.64;38.17
22283;BME280;11310;51.528;21.204;2023-05-22T11:47:55;100225.47;;;28.31;39.39
22283;BME280;11310;51.528;21.204;2023-05-22T11:50:24;100221.91;;;28.31;39.30
22283;BME280;11310;51.528;21.204;2023-05-22T11:53:11;100218.59;;;28.52;39.36
22283;BME280;11310;51.528;21.204;2023-05-22T11:55:41;100210.44;;;28.60;39.23
22283;BME280;11310;51.528;21.204;2023-05-22T11:58:10;100228.84;;;28.56;38.03
22283;BME280;11310;51.528;21.204;2023-05-22T12:00:39;100216.34;;;28.41;37.65
22283;BME280;11310;51.528;21.204;2023-05-22T12:03:08;100216.81;;;28.36;38.63
22283;BME280;11310;51.528;21.204;2023-05-22T12:05:38;100214.44;;;27.72;38.27
22283;BME280;11310;51.528;21.204;2023-05-22T12:08:15;100213.19;;;27.52;39.63
22283;BME280;11310;51.528;21.204;2023-05-22T12:10:48;100205.75;;;28.00;39.31
22283;BME280;11310;51.528;21.204;2023-05-22T12:13:22;100207.53;;;28.38;38.89
22283;BME280;11310;51.528;21.204;2023-05-22T12:15:56;100211.25;;;28.60;37.30
22283;BME280;11310;51.528;21.204;2023-05-22T12:18:26;100208.38;;;28.39;36.81
22283;BME280;11310;51.528;21.204;2023-05-22T12:20:55;100204.81;;;28.47;38.10
22283;BME280;11310;51.528;21.204;2023-05-22T12:23:27;100211.09;;;28.84;37.38
22283;BME280;11310;51.528;21.204;2023-05-22T12:25:59;100201.69;;;28.95;37.18
22283;BME280;11310;51.528;21.204;2023-05-22T12:28:30;100208.56;;;28.97;37.72
22283;BME280;11310;51.528;21.204;2023-05-22T12:30:59;100206.44;;;28.70;37.73
22283;BME280;11310;51.528;21.204;2023-05-22T12:33:30;100197.69;;;28.68;37.12
22283;BME280;11310;51.528;21.204;2023-05-22T12:35:59;100192.66;;;28.65;37.83
22283;BME280;11310;51.528;21.204;2023-05-22T12:38:30;100195.28;;;28.73;37.10
22283;BME280;11310;51.528;21.204;2023-05-22T12:41:01;100185.97;;;28.61;37.02
22283;BME280;11310;51.528;21.204;2023-05-22T12:43:31;100185.84;;;28.55;36.54
22283;BME280;11310;51.528;21.204;2023-05-22T12:46:02;100189.66;;;28.37;38.29
22283;BME280;11310;51.528;21.204;2023-05-22T12:48:31;100182.41;;;28.61;36.98
22283;BME280;11310;51.528;21.204;2023-05-22T12:51:00;100184.38;;;28.67;37.40
22283;BME280;11310;51.528;21.204;2023-05-22T12:53:30;100183.16;;;28.69;37.60
22283;BME280;11310;51.528;21.204;2023-05-22T12:55:59;100184.13;;;28.53;37.17
22283;BME280;11310;51.528;21.204;2023-05-22T12:58:28;100177.63;;;28.48;37.20
22283;BME280;11310;51.528;21.204;2023-05-22T13:00:57;100172.63;;;28.60;37.52
22283;BME280;11310;51.528;21.204;2023-05-22T13:03:26;100175.91;;;28.47;36.74
22283;BME280;11310;51.528;21.204;2023-05-22T13:05:55;100171.50;;;28.54;36.64